This is the latest recevied weather packets stored in our database for station/object KC3SOZ. If no packets are shown the sender has not sent any weather packets the latest 10 day(s).
| Time | Temp. | Humidity | Pressure | Rain* | Wind** | Luminosity | Snow |
|---|---|---|---|---|---|---|---|
| 1777821179 | 10.56° C | 50% | 1015.8 hPa | 0 mm | - | 188 W/m² | - |
| 1777820876 | 10.56° C | 50% | 1015.8 hPa | 0 mm | - | 837 W/m² | - |
| 1777820572 | 10° C | 46% | 1016 hPa | 0 mm | - | 817 W/m² | - |
| 1777820269 | 9.44° C | 49% | 1016.1 hPa | 0 mm | - | 764 W/m² | - |
| 1777819966 | 9.44° C | 48% | 1016 hPa | 0 mm | - | 724 W/m² | - |
| 1777819663 | 9.44° C | 47% | 1016.1 hPa | 0 mm | - | 700 W/m² | - |
| 1777819362 | 9.44° C | 47% | 1016.2 hPa | 0 mm | - | 693 W/m² | - |
| 1777819058 | 9.44° C | 49% | 1016 hPa | 0 mm | - | 674 W/m² | - |
| 1777818755 | 9.44° C | 50% | 1016.1 hPa | 0 mm | - | 669 W/m² | - |
| 1777818451 | 9.44° C | 47% | 1016.2 hPa | 0 mm | - | 662 W/m² | - |
| 1777818148 | 9.44° C | 56% | 1016 hPa | 0 mm | - | 701 W/m² | - |
| 1777817845 | 8.89° C | 56% | 1016.1 hPa | 0 mm | - | 666 W/m² | - |
| 1777817543 | 8.89° C | 52% | 1016 hPa | 0 mm | - | 631 W/m² | - |
| 1777817239 | 8.89° C | 55% | 1016.1 hPa | 0 mm | - | 630 W/m² | - |
| 1777816937 | 8.33° C | 52% | 1016.2 hPa | 0 mm | - | 588 W/m² | - |
| 1777816633 | 7.78° C | 58% | 1016 hPa | 0 mm | - | 580 W/m² | - |
| 1777816330 | 7.78° C | 54% | 1016.3 hPa | 0 mm | - | 122 W/m² | - |
| 1777816027 | 7.78° C | 57% | 1016.3 hPa | 0 mm | - | 547 W/m² | - |
| 1777815725 | 7.78° C | 59% | 1016.3 hPa | 0 mm | - | 556 W/m² | - |
| 1777815422 | 7.78° C | 60% | 1016.3 hPa | 0 mm | - | 453 W/m² | - |
| 1777815119 | 7.78° C | 59% | 1016.4 hPa | 0 mm | - | 501 W/m² | - |
| 1777814815 | 7.78° C | 63% | 1016.3 hPa | 0 mm | - | 477 W/m² | - |
| 1777814512 | 7.22° C | 63% | 1016.3 hPa | 0 mm | - | 458 W/m² | - |
| 1777814209 | 7.22° C | 63% | 1016.4 hPa | 0 mm | - | 448 W/m² | - |
| 1777813906 | 7.22° C | 64% | 1016.2 hPa | 0 mm | - | 427 W/m² | - |
* Rain latest hour (hover to see other rain measurements)
** Current wind speed in m/s (hover to see current wind gust speed)